createdAt,value
2019-01-28T00:00:22.750Z,3.30
2019-01-28T00:02:48.655Z,3.73
2019-01-28T00:05:14.530Z,3.80
2019-01-28T00:07:40.434Z,4.07
2019-01-28T00:10:07.111Z,3.90
2019-01-28T00:12:33.138Z,3.80
2019-01-28T00:14:59.014Z,4.77
2019-01-28T00:17:24.922Z,4.60
2019-01-28T00:19:50.834Z,3.33
2019-01-28T00:22:16.747Z,3.70
2019-01-28T00:24:42.651Z,3.60
2019-01-28T00:27:08.532Z,4.07
2019-01-28T00:29:34.453Z,3.57
2019-01-28T00:32:00.323Z,3.87
2019-01-28T00:34:26.245Z,4.37
2019-01-28T00:36:52.109Z,4.00
2019-01-28T00:39:18.009Z,4.20
2019-01-28T00:41:43.925Z,4.17
2019-01-28T00:44:09.862Z,3.90
2019-01-28T00:46:35.767Z,3.93
2019-01-28T00:49:01.668Z,3.87
2019-01-28T00:51:27.570Z,4.20
2019-01-28T00:53:53.459Z,4.37
2019-01-28T00:56:19.376Z,4.30
2019-01-28T00:58:45.256Z,4.00
2019-01-28T01:01:11.172Z,4.00
2019-01-28T01:03:37.038Z,3.87
2019-01-28T01:06:02.933Z,4.47
2019-01-28T01:08:28.819Z,4.00
2019-01-28T01:10:54.716Z,4.10
2019-01-28T01:13:20.613Z,3.90
2019-01-28T01:15:46.526Z,4.03
2019-01-28T01:18:12.461Z,4.03
2019-01-28T01:20:38.366Z,4.00
2019-01-28T01:23:04.271Z,4.03
2019-01-28T01:25:30.148Z,3.87
2019-01-28T01:27:56.070Z,4.07
2019-01-28T01:30:21.951Z,4.00
2019-01-28T01:32:47.897Z,4.00
2019-01-28T01:35:13.788Z,4.07
2019-01-28T01:37:39.714Z,4.20
2019-01-28T01:40:13.786Z,4.07
2019-01-28T01:42:39.748Z,3.70
2019-01-28T01:45:09.430Z,4.00
2019-01-28T01:47:35.338Z,3.87
2019-01-28T01:50:01.210Z,4.03
2019-01-28T01:52:27.123Z,4.80
2019-01-28T01:54:52.976Z,4.80
2019-01-28T01:57:18.892Z,4.87
2019-01-28T01:59:44.771Z,5.17
2019-01-28T02:02:10.696Z,5.20
2019-01-28T02:04:36.623Z,5.10
2019-01-28T02:07:02.549Z,5.63
2019-01-28T02:09:28.465Z,6.07
2019-01-28T02:11:54.333Z,6.33
2019-01-28T02:14:20.238Z,6.13
2019-01-28T02:16:46.110Z,6.10
2019-01-28T02:19:12.009Z,6.00
2019-01-28T02:21:37.887Z,6.70
2019-01-28T02:24:03.915Z,6.03
2019-01-28T02:26:29.830Z,6.27
2019-01-28T02:28:55.693Z,6.23
2019-01-28T02:31:21.601Z,7.20
2019-01-28T02:33:47.470Z,6.10
2019-01-28T02:36:13.370Z,6.70
2019-01-28T02:38:39.251Z,6.33
2019-01-28T02:41:05.199Z,6.00
2019-01-28T02:43:31.236Z,6.43
2019-01-28T02:45:57.142Z,6.47
2019-01-28T02:48:23.052Z,6.40
2019-01-28T02:50:48.951Z,6.70
2019-01-28T02:53:14.856Z,6.40
2019-01-28T02:55:40.750Z,6.43
2019-01-28T02:58:06.656Z,5.87
2019-01-28T03:00:32.534Z,5.97
2019-01-28T03:02:58.429Z,7.50
2019-01-28T03:05:24.324Z,6.13
2019-01-28T03:07:50.226Z,5.83
2019-01-28T03:10:17.998Z,6.47
2019-01-28T03:12:43.998Z,6.47
2019-01-28T03:15:09.874Z,5.93
2019-01-28T03:17:35.795Z,6.13
2019-01-28T03:20:01.767Z,5.90
2019-01-28T03:22:27.637Z,6.13
2019-01-28T03:24:53.546Z,6.00
2019-01-28T03:27:19.455Z,6.03
2019-01-28T03:29:45.328Z,5.83
2019-01-28T03:32:11.234Z,6.10
2019-01-28T03:34:37.135Z,5.73
2019-01-28T03:37:03.047Z,5.90
2019-01-28T03:39:28.908Z,6.03
2019-01-28T03:41:54.786Z,6.00
2019-01-28T03:44:20.734Z,5.90
2019-01-28T03:46:46.656Z,6.47
2019-01-28T03:49:12.658Z,6.77
2019-01-28T03:51:38.629Z,6.50
2019-01-28T03:54:04.540Z,6.93
2019-01-28T03:56:30.515Z,6.63
2019-01-28T03:58:56.423Z,6.73
2019-01-28T04:01:22.383Z,6.20
2019-01-28T04:03:48.274Z,6.73
2019-01-28T04:06:14.153Z,6.67
2019-01-28T04:08:40.156Z,6.87
2019-01-28T04:11:06.057Z,6.37
2019-01-28T04:13:31.934Z,6.87
2019-01-28T04:15:57.835Z,7.30
2019-01-28T04:18:23.711Z,7.00
2019-01-28T04:20:49.604Z,7.47
2019-01-28T04:23:15.595Z,7.13
2019-01-28T04:25:41.526Z,6.93
2019-01-28T04:28:07.430Z,7.17
2019-01-28T04:30:33.336Z,7.17
2019-01-28T04:32:59.217Z,6.87
2019-01-28T04:35:25.118Z,7.10
2019-01-28T04:37:51.118Z,6.77
2019-01-28T04:40:16.991Z,7.00
2019-01-28T04:42:43.196Z,7.67
2019-01-28T04:45:16.986Z,8.10
2019-01-28T04:47:42.998Z,7.50
2019-01-28T04:50:13.552Z,7.30
2019-01-28T04:52:39.454Z,7.50
2019-01-28T04:55:06.792Z,7.87
2019-01-28T04:57:32.802Z,7.60
2019-01-28T04:59:58.714Z,7.13
2019-01-28T05:02:24.634Z,6.47
2019-01-28T05:04:50.548Z,5.83
2019-01-28T05:07:16.417Z,5.87
2019-01-28T05:09:42.328Z,5.87
2019-01-28T05:12:08.193Z,5.80
2019-01-28T05:14:34.130Z,5.20
2019-01-28T05:16:59.992Z,6.20
2019-01-28T05:19:25.897Z,7.27
2019-01-28T05:21:51.771Z,6.77
2019-01-28T05:24:17.696Z,6.90
2019-01-28T05:26:43.573Z,5.63
2019-01-28T05:29:09.569Z,5.77
2019-01-28T05:31:35.489Z,5.53
2019-01-28T05:34:01.394Z,5.80
2019-01-28T05:36:27.259Z,5.60
2019-01-28T05:38:53.133Z,5.60
2019-01-28T05:41:19.027Z,4.87
2019-01-28T05:43:44.934Z,5.73
2019-01-28T05:46:11.862Z,6.00
2019-01-28T05:48:37.727Z,5.70
2019-01-28T05:51:03.606Z,5.47
2019-01-28T05:53:29.524Z,5.20
2019-01-28T05:55:55.478Z,4.90
2019-01-28T05:58:21.418Z,4.17
2019-01-28T06:00:47.409Z,3.80
2019-01-28T06:03:13.319Z,3.90
2019-01-28T06:05:39.254Z,4.13
2019-01-28T06:08:05.430Z,3.67
2019-01-28T06:10:31.512Z,3.67
2019-01-28T06:12:57.420Z,3.90
2019-01-28T06:15:23.297Z,3.50
2019-01-28T06:17:49.210Z,3.60
2019-01-28T06:20:23.750Z,3.13
2019-01-28T06:22:49.656Z,3.37
2019-01-28T06:25:15.523Z,3.20
2019-01-28T06:27:41.504Z,3.40
2019-01-28T06:30:11.228Z,3.30
2019-01-28T06:32:37.149Z,3.30
2019-01-28T06:35:05.262Z,2.97
2019-01-28T06:37:31.125Z,3.20
2019-01-28T06:39:57.028Z,3.37
2019-01-28T06:42:22.945Z,3.57
2019-01-28T06:44:48.897Z,3.47
2019-01-28T06:47:14.807Z,3.23
2019-01-28T06:49:40.746Z,3.70
2019-01-28T06:52:06.619Z,3.63
2019-01-28T06:54:32.659Z,3.70
2019-01-28T06:56:58.573Z,3.17
2019-01-28T06:59:24.449Z,3.60
2019-01-28T07:01:50.365Z,4.00
2019-01-28T07:04:16.231Z,3.57
2019-01-28T07:06:42.146Z,3.70
2019-01-28T07:09:08.159Z,4.00
2019-01-28T07:11:34.410Z,3.53
2019-01-28T07:14:00.334Z,3.70
2019-01-28T07:16:26.227Z,3.70
2019-01-28T07:18:52.140Z,3.90
2019-01-28T07:21:18.018Z,3.60
2019-01-28T07:23:43.922Z,3.53
2019-01-28T07:26:09.788Z,3.03
2019-01-28T07:28:35.700Z,2.93
2019-01-28T07:31:01.684Z,3.10
2019-01-28T07:33:27.594Z,2.83
2019-01-28T07:35:53.457Z,2.80
2019-01-28T07:38:19.386Z,3.40
2019-01-28T07:40:45.266Z,2.70
2019-01-28T07:43:11.176Z,3.10
2019-01-28T07:45:44.669Z,3.20
2019-01-28T07:48:05.057Z,3.20
2019-01-28T07:50:30.922Z,3.13
2019-01-28T07:52:56.842Z,3.53
2019-01-28T07:55:22.767Z,4.07
2019-01-28T07:57:48.731Z,2.90
2019-01-28T08:00:19.441Z,3.37
2019-01-28T08:02:45.524Z,3.63
2019-01-28T08:05:13.047Z,3.40
2019-01-28T08:07:42.654Z,3.43
2019-01-28T08:10:11.310Z,4.03
2019-01-28T08:12:37.220Z,4.30
2019-01-28T08:15:09.962Z,4.23
2019-01-28T08:17:35.835Z,3.40
2019-01-28T08:20:02.357Z,4.10
2019-01-28T08:22:28.269Z,3.07
2019-01-28T08:24:54.183Z,2.90
2019-01-28T08:27:20.067Z,2.57
2019-01-28T08:29:45.984Z,2.70
2019-01-28T08:32:11.881Z,2.60
2019-01-28T08:34:37.789Z,2.50
2019-01-28T08:37:03.679Z,3.00
2019-01-28T08:39:29.581Z,2.57
2019-01-28T08:41:55.497Z,2.20
2019-01-28T08:44:21.416Z,2.30
2019-01-28T08:46:47.352Z,2.20
2019-01-28T08:49:13.270Z,2.50
2019-01-28T08:51:39.142Z,2.40
2019-01-28T08:54:05.054Z,2.37
2019-01-28T08:56:31.037Z,2.23
2019-01-28T08:58:56.949Z,2.50
2019-01-28T09:01:22.827Z,2.20
2019-01-28T09:03:48.730Z,2.03
2019-01-28T09:06:14.608Z,2.10
2019-01-28T09:08:40.518Z,2.30
2019-01-28T09:11:06.455Z,2.33
2019-01-28T09:13:32.352Z,2.00
2019-01-28T09:15:58.218Z,2.20
2019-01-28T09:18:26.398Z,2.07
2019-01-28T09:20:51.900Z,1.73
2019-01-28T09:23:17.857Z,2.20
2019-01-28T09:25:43.752Z,1.70
2019-01-28T09:28:09.689Z,2.30
2019-01-28T09:30:35.612Z,2.00
2019-01-28T09:33:02.772Z,2.17
2019-01-28T09:35:28.665Z,1.97
2019-01-28T09:37:54.585Z,1.83
2019-01-28T09:40:22.660Z,2.00
2019-01-28T09:42:48.743Z,1.77
2019-01-28T09:45:20.710Z,1.70
2019-01-28T09:47:46.630Z,2.00
2019-01-28T09:50:14.041Z,2.23
2019-01-28T09:52:39.937Z,2.40
2019-01-28T09:55:08.881Z,2.00
2019-01-28T09:57:34.800Z,2.17
2019-01-28T10:00:00.872Z,2.30
2019-01-28T10:02:26.765Z,2.40
2019-01-28T10:04:52.689Z,1.90
2019-01-28T10:07:18.575Z,1.80
2019-01-28T10:09:44.483Z,1.67
2019-01-28T10:12:10.808Z,2.13
2019-01-28T10:17:18.558Z,1.70
2019-01-28T10:19:44.513Z,1.53
2019-01-28T10:22:10.432Z,1.70
2019-01-28T10:24:36.296Z,1.80
2019-01-28T10:27:02.228Z,1.70
2019-01-28T10:29:28.092Z,1.60
2019-01-28T10:31:54.090Z,1.30
2019-01-28T10:34:19.961Z,1.70
2019-01-28T10:36:45.864Z,1.80
2019-01-28T10:39:11.734Z,2.60
2019-01-28T10:41:37.650Z,2.53
2019-01-28T10:44:10.165Z,1.53
2019-01-28T10:46:31.340Z,1.90
2019-01-28T10:48:57.269Z,1.80
2019-01-28T10:51:23.187Z,1.60
2019-01-28T10:53:49.048Z,1.63
2019-01-28T10:56:15.003Z,1.63
2019-01-28T10:58:40.893Z,1.77
2019-01-28T11:01:06.767Z,1.50
2019-01-28T11:03:32.824Z,1.90
2019-01-28T11:05:58.687Z,3.43
2019-01-28T11:08:26.418Z,2.60
2019-01-28T11:10:52.400Z,1.80
2019-01-28T11:13:18.333Z,1.70
2019-01-28T11:15:44.197Z,1.97
2019-01-28T11:18:18.224Z,1.37
2019-01-28T11:20:44.173Z,1.30
2019-01-28T11:23:10.101Z,1.50
2019-01-28T11:25:36.075Z,1.40
2019-01-28T11:28:01.949Z,1.40
2019-01-28T11:30:41.191Z,1.30
2019-01-28T11:33:07.196Z,1.27
2019-01-28T11:35:34.427Z,1.40
2019-01-28T11:38:01.358Z,1.40
2019-01-28T11:40:27.321Z,1.33
2019-01-28T11:43:13.367Z,1.57
2019-01-28T11:45:49.041Z,1.50
2019-01-28T11:48:15.068Z,1.80
2019-01-28T11:50:41.001Z,1.70
2019-01-28T12:15:22.032Z,1.70
2019-01-28T12:17:47.932Z,1.57
2019-01-28T12:20:15.406Z,1.60
2019-01-28T12:22:41.310Z,1.83
2019-01-28T12:25:10.526Z,1.70
2019-01-28T12:27:36.431Z,1.70
2019-01-28T12:30:06.140Z,1.83
2019-01-28T12:32:32.110Z,1.70
2019-01-28T12:34:57.985Z,1.70
2019-01-28T12:37:23.898Z,1.73
2019-01-28T12:39:49.771Z,1.90
2019-01-28T12:42:15.684Z,1.70
2019-01-28T12:44:41.559Z,1.90
2019-01-28T12:47:07.439Z,1.93
2019-01-28T12:49:33.348Z,1.70
2019-01-28T12:51:59.269Z,2.10
2019-01-28T12:54:25.182Z,2.10
2019-01-28T12:56:51.070Z,2.07
2019-01-28T12:59:17.047Z,1.90
2019-01-28T13:01:42.964Z,2.20
2019-01-28T13:04:08.877Z,1.97
2019-01-28T13:06:34.731Z,2.13
2019-01-28T13:09:00.660Z,2.10
2019-01-28T13:11:26.572Z,2.20
2019-01-28T13:13:52.484Z,1.90
2019-01-28T13:16:18.408Z,2.20
2019-01-28T13:18:44.301Z,2.03
2019-01-28T13:21:10.196Z,2.37
2019-01-28T13:23:36.072Z,2.00
2019-01-28T13:26:01.983Z,2.10
2019-01-28T13:28:27.892Z,2.00
2019-01-28T13:30:53.761Z,2.07
2019-01-28T13:33:19.823Z,2.10
2019-01-28T13:35:45.715Z,2.10
2019-01-28T13:38:11.628Z,2.10
2019-01-28T13:40:37.500Z,2.03
2019-01-28T13:43:03.905Z,2.50
2019-01-28T13:45:29.792Z,2.37
2019-01-28T13:47:58.084Z,2.43
2019-01-28T13:50:24.360Z,2.53
2019-01-28T13:52:50.279Z,2.40
2019-01-28T13:55:17.090Z,2.40
2019-01-28T13:57:43.043Z,2.37
2019-01-28T14:00:21.338Z,2.40
2019-01-28T14:02:47.253Z,2.40
2019-01-28T14:05:13.131Z,2.77
2019-01-28T14:07:38.999Z,2.80
2019-01-28T14:10:08.613Z,2.53
2019-01-28T14:12:34.495Z,2.57
2019-01-28T14:15:00.433Z,2.50
2019-01-28T14:17:26.391Z,2.40
2019-01-28T14:19:52.293Z,2.50
2019-01-28T14:22:18.180Z,2.60
2019-01-28T14:24:44.120Z,5.27
2019-01-28T14:27:10.014Z,8.17
2019-01-28T14:29:35.884Z,3.80
2019-01-28T14:32:01.817Z,3.83
2019-01-28T14:34:27.705Z,4.83
2019-01-28T14:36:53.624Z,3.23
2019-01-28T14:39:19.495Z,3.67
2019-01-28T14:41:45.508Z,3.20
2019-01-28T14:44:11.406Z,2.80
2019-01-28T14:46:37.318Z,2.97
2019-01-28T14:49:03.295Z,3.23
2019-01-28T14:51:29.210Z,3.00
2019-01-28T14:53:55.123Z,3.30
2019-01-28T14:56:21.018Z,3.80
2019-01-28T14:58:46.912Z,3.33
2019-01-28T15:01:12.943Z,3.50
2019-01-28T15:03:38.897Z,3.70
2019-01-28T15:06:04.732Z,3.40
2019-01-28T15:08:30.646Z,3.37
2019-01-28T15:10:56.569Z,3.47
2019-01-28T15:13:22.485Z,3.57
2019-01-28T15:15:48.405Z,3.57
2019-01-28T15:18:14.536Z,3.53
2019-01-28T15:20:43.191Z,3.87
2019-01-28T15:23:09.136Z,4.00
2019-01-28T15:25:35.011Z,3.93
2019-01-28T15:28:00.932Z,4.30
2019-01-28T15:30:28.711Z,5.07
2019-01-28T15:32:54.700Z,5.40
2019-01-28T15:35:20.937Z,5.07
2019-01-28T15:37:47.060Z,5.40
2019-01-28T15:40:16.081Z,5.83
2019-01-28T15:42:42.081Z,6.27
2019-01-28T15:45:11.800Z,5.83
2019-01-28T15:47:37.681Z,5.90
2019-01-28T15:50:10.668Z,6.10
2019-01-28T15:52:34.971Z,6.13
2019-01-28T15:55:00.884Z,5.10
2019-01-28T15:57:26.799Z,5.30
2019-01-28T15:59:52.712Z,4.87
2019-01-28T16:02:18.586Z,4.77
2019-01-28T16:04:44.502Z,5.40
2019-01-28T16:07:10.380Z,5.43
2019-01-28T16:09:36.329Z,5.20
2019-01-28T16:12:02.235Z,5.70
2019-01-28T16:14:28.158Z,6.70
2019-01-28T16:16:54.166Z,5.53
2019-01-28T16:19:20.078Z,5.20
2019-01-28T16:21:45.990Z,5.80
2019-01-28T16:24:11.899Z,6.30
2019-01-28T16:26:37.779Z,6.30
2019-01-28T16:29:03.748Z,6.60
2019-01-28T16:31:29.634Z,6.97
2019-01-28T16:33:55.548Z,7.40
2019-01-28T16:36:21.542Z,6.60
2019-01-28T16:38:47.522Z,6.97
2019-01-28T16:41:13.468Z,7.63
2019-01-28T16:43:39.364Z,8.67
2019-01-28T16:46:05.341Z,8.47
2019-01-28T16:48:31.332Z,9.93
2019-01-28T16:50:57.262Z,10.50
2019-01-28T16:53:23.181Z,10.00
2019-01-28T16:55:49.065Z,11.83
2019-01-28T16:58:15.009Z,11.70
2019-01-28T17:00:40.911Z,11.43
2019-01-28T17:03:08.140Z,11.60
2019-01-28T17:05:34.325Z,12.23
2019-01-28T17:08:00.349Z,13.10
2019-01-28T17:10:26.431Z,13.60
2019-01-28T17:12:52.364Z,13.60
2019-01-28T17:15:20.211Z,14.10
2019-01-28T17:17:46.142Z,13.43
2019-01-28T17:20:35.712Z,14.83
2019-01-28T17:23:00.227Z,15.40
2019-01-28T17:25:32.944Z,16.47
2019-01-28T17:27:58.875Z,15.23
2019-01-28T17:30:39.114Z,16.33
2019-01-28T17:33:05.731Z,17.00
2019-01-28T17:35:31.597Z,16.73
2019-01-28T17:37:57.499Z,17.97
2019-01-28T17:40:26.561Z,22.23
2019-01-28T17:42:52.588Z,17.40
2019-01-28T17:45:19.110Z,18.20
2019-01-28T17:47:45.115Z,18.83
2019-01-28T17:50:12.132Z,17.30
2019-01-28T17:52:38.024Z,17.37
2019-01-28T17:55:05.036Z,17.93
2019-01-28T17:57:30.964Z,16.20
2019-01-28T17:59:56.942Z,18.13
2019-01-28T18:02:22.828Z,17.17
2019-01-28T18:04:48.728Z,18.57
2019-01-28T18:07:14.648Z,18.10
2019-01-28T18:09:40.706Z,18.90
2019-01-28T18:12:06.580Z,20.00
2019-01-28T18:14:32.469Z,19.63
2019-01-28T18:16:58.433Z,19.83
2019-01-28T18:19:24.383Z,21.87
2019-01-28T18:21:50.313Z,20.33
2019-01-28T18:24:16.242Z,20.83
2019-01-28T18:26:42.148Z,21.10
2019-01-28T18:29:08.170Z,19.70
2019-01-28T18:31:34.088Z,20.37
2019-01-28T18:34:00.022Z,19.50
2019-01-28T18:36:25.924Z,20.03
2019-01-28T18:38:51.834Z,21.10
2019-01-28T18:41:17.751Z,19.47
2019-01-28T18:43:43.717Z,19.93
2019-01-28T18:46:09.788Z,17.37
2019-01-28T18:48:35.696Z,18.93
2019-01-28T18:51:01.574Z,22.13
2019-01-28T18:53:27.513Z,19.60
2019-01-28T18:55:53.420Z,18.70
2019-01-28T18:58:19.463Z,19.80
2019-01-28T19:00:45.409Z,19.03
2019-01-28T19:03:11.355Z,18.77
2019-01-28T19:05:54.250Z,18.00
2019-01-28T19:08:31.464Z,15.37
2019-01-28T19:10:59.278Z,12.70
2019-01-28T19:13:43.900Z,11.87
2019-01-28T19:16:11.722Z,10.47
2019-01-28T19:18:51.355Z,10.33
2019-01-28T19:21:19.136Z,11.70
2019-01-28T19:23:45.056Z,19.83
2019-01-28T19:26:11.038Z,10.57
2019-01-28T19:28:39.740Z,10.97
2019-01-28T19:31:05.671Z,10.47
2019-01-28T19:33:31.560Z,9.47
2019-01-28T19:35:57.471Z,9.20
2019-01-28T19:38:23.464Z,8.83
2019-01-28T19:40:49.467Z,7.40
2019-01-28T19:43:15.377Z,8.33
2019-01-28T19:45:41.262Z,7.30
2019-01-28T19:48:07.321Z,6.83
2019-01-28T19:50:33.198Z,6.20
2019-01-28T19:52:59.160Z,6.40
2019-01-28T19:55:25.046Z,6.00
2019-01-28T19:57:50.976Z,6.57
2019-01-28T20:00:22.590Z,6.70
2019-01-28T20:02:48.781Z,6.57
2019-01-28T20:05:14.809Z,6.10
2019-01-28T20:07:40.783Z,6.30
2019-01-28T20:10:09.325Z,5.77
2019-01-28T20:12:35.190Z,6.67
2019-01-28T20:15:01.115Z,5.77
2019-01-28T20:17:27.020Z,6.30
2019-01-28T20:19:52.968Z,5.67
2019-01-28T20:22:18.828Z,6.20
2019-01-28T20:24:45.382Z,7.20
2019-01-28T20:27:11.326Z,5.63
2019-01-28T20:29:37.234Z,6.00
2019-01-28T20:32:03.111Z,5.20
2019-01-28T20:34:29.024Z,5.77
2019-01-28T20:36:54.952Z,5.60
2019-01-28T20:39:20.884Z,5.53
2019-01-28T20:41:46.758Z,5.30
2019-01-28T20:44:12.632Z,5.17
2019-01-28T20:46:38.552Z,5.23
2019-01-28T20:49:04.445Z,4.73
2019-01-28T20:51:32.436Z,5.17
2019-01-28T20:53:58.254Z,5.60
2019-01-28T20:56:24.160Z,5.53
2019-01-28T20:58:50.026Z,5.70
2019-01-28T21:01:16.018Z,6.50
2019-01-28T21:03:41.901Z,6.43
2019-01-28T21:06:07.787Z,5.80
2019-01-28T21:08:33.719Z,6.70
2019-01-28T21:10:59.728Z,6.57
2019-01-28T21:13:25.617Z,6.60
2019-01-28T21:15:51.512Z,6.63
2019-01-28T21:18:17.460Z,6.73
2019-01-28T21:20:43.330Z,7.67
2019-01-28T21:23:09.220Z,6.80
2019-01-28T21:25:35.139Z,8.13
2019-01-28T21:28:01.024Z,7.90
2019-01-28T21:30:34.320Z,7.60
2019-01-28T21:33:00.270Z,7.93
2019-01-28T21:35:43.250Z,8.33
2019-01-28T21:38:11.033Z,8.20
2019-01-28T21:40:36.899Z,7.80
2019-01-28T21:43:02.831Z,7.53
2019-01-28T21:45:28.739Z,7.33
2019-01-28T21:47:54.617Z,6.90
2019-01-28T21:50:22.240Z,7.53
2019-01-28T21:52:48.167Z,7.53
2019-01-28T21:55:14.136Z,8.50
2019-01-28T21:57:40.038Z,9.87
2019-01-28T22:00:09.363Z,11.77
2019-01-28T22:02:35.318Z,9.27
2019-01-28T22:05:01.339Z,8.43
2019-01-28T22:07:27.208Z,9.03
2019-01-28T22:09:53.119Z,8.40
2019-01-28T22:12:19.050Z,8.30
2019-01-28T22:14:44.938Z,7.23
2019-01-28T22:17:10.902Z,8.40
2019-01-28T22:19:36.766Z,8.30
2019-01-28T22:22:02.674Z,8.87
2019-01-28T22:24:28.557Z,9.20
2019-01-28T22:26:54.495Z,8.87
2019-01-28T22:29:20.406Z,8.70
2019-01-28T22:31:46.292Z,8.50
2019-01-28T22:34:12.275Z,8.37
2019-01-28T22:36:38.219Z,8.10
2019-01-28T22:39:06.130Z,8.27
2019-01-28T22:41:32.012Z,8.20
2019-01-28T22:43:58.042Z,8.83
2019-01-28T22:46:23.938Z,7.60
2019-01-28T22:48:49.836Z,8.40
2019-01-28T22:51:15.725Z,8.60
2019-01-28T22:53:41.769Z,7.70
2019-01-28T22:56:07.609Z,7.20
2019-01-28T22:58:33.513Z,6.90
2019-01-28T23:01:05.894Z,7.33
2019-01-28T23:03:31.755Z,6.30
2019-01-28T23:05:57.659Z,6.33
2019-01-28T23:08:23.573Z,6.00
2019-01-28T23:10:49.934Z,6.17
2019-01-28T23:13:15.930Z,6.27
2019-01-28T23:15:41.839Z,5.70
2019-01-28T23:18:07.746Z,6.27
2019-01-28T23:20:33.666Z,5.77
2019-01-28T23:22:59.539Z,6.07
2019-01-28T23:25:25.440Z,6.20
2019-01-28T23:27:51.308Z,5.80
2019-01-28T23:30:17.334Z,5.60
2019-01-28T23:32:43.214Z,8.77
2019-01-28T23:35:09.080Z,5.57
2019-01-28T23:37:34.983Z,6.93
2019-01-28T23:40:00.852Z,6.77
2019-01-28T23:42:27.142Z,6.87
2019-01-28T23:44:52.999Z,7.53
2019-01-28T23:47:18.916Z,6.80
2019-01-28T23:49:44.794Z,7.47
2019-01-28T23:52:10.708Z,7.27
2019-01-28T23:54:36.571Z,7.03
2019-01-28T23:57:02.655Z,7.33
2019-01-28T23:59:28.527Z,8.40
